Time;durP1;ratioP1;P1;durP2;ratioP2;P2;SDS_P1;SDS_P2;PMS_P1;PMS_P2;Temp;Humidity;BMP_temperature;BMP_pressure;BME280_temperature;BME280_humidity;BME280_pressure;Samples;Min_cycle;Max_cycle;Signal;HPM_P1;HPM_P2
2024/04/19 00:01:11;;;;;;;;;6.75;5.00;;;;;12.84;54.88;101746.72;5404484;26;43931;-67
2024/04/19 00:03:36;;;;;;;;;6.00;5.50;;;;;12.90;54.36;101750.13;5403902;26;47993;-68
2024/04/19 00:06:02;;;;;;;;;5.25;5.25;;;;;12.85;54.97;101746.69;5416586;26;44717;-68
2024/04/19 00:08:27;;;;;;;;;6.00;6.00;;;;;12.85;54.33;101748.50;5416327;26;44265;-67
2024/04/19 00:10:54;;;;;;;;;5.50;5.00;;;;;12.91;54.60;101751.91;5404154;26;43785;-67
2024/04/19 00:13:20;;;;;;;;;4.00;4.00;;;;;12.73;55.53;101726.44;5400765;26;43921;-68
2024/04/19 00:15:46;;;;;;;;;4.00;4.00;;;;;12.87;54.65;101736.78;5402222;26;45713;-67
2024/04/19 00:18:11;;;;;;;;;4.00;4.00;;;;;12.83;55.71;101735.13;5422348;26;44300;-67
2024/04/19 00:20:39;;;;;;;;;4.25;4.00;;;;;12.82;55.22;101736.03;5421374;26;43916;-67
2024/04/19 00:23:04;;;;;;;;;6.00;6.00;;;;;12.77;54.71;101722.75;5427005;26;44067;-67
2024/04/19 00:25:33;;;;;;;;;5.75;5.00;;;;;12.85;54.80;101735.97;5404190;26;43962;-67
2024/04/19 00:27:58;;;;;;;;;6.00;4.75;;;;;12.93;55.26;101752.72;5425609;26;44865;-67
2024/04/19 00:30:24;;;;;;;;;5.00;5.00;;;;;12.69;55.24;101699.78;5418325;26;44021;-68
2024/04/19 00:32:49;;;;;;;;;3.50;3.00;;;;;12.72;55.12;101713.09;5413690;26;44384;-67
2024/04/19 00:35:14;;;;;;;;;5.25;5.25;;;;;12.95;55.78;101745.53;5403650;26;44976;-68
2024/04/19 00:37:40;;;;;;;;;6.25;4.50;;;;;12.91;56.16;101740.28;5406094;26;44048;-67
2024/04/19 00:40:06;;;;;;;;;4.00;4.00;;;;;12.88;55.62;101741.25;5415877;26;43944;-67
2024/04/19 00:42:31;;;;;;;;;4.75;4.75;;;;;12.97;56.26;101749.03;5416715;26;44192;-68
2024/04/19 00:44:56;;;;;;;;;2.25;2.25;;;;;12.76;55.63;101710.28;5426370;26;44174;-68
2024/04/19 00:47:22;;;;;;;;;4.00;4.00;;;;;12.89;55.99;101724.22;5391867;26;43955;-67
2024/04/19 00:49:47;;;;;;;;;4.00;4.00;;;;;12.89;56.44;101726.03;5415361;26;43993;-67
2024/04/19 00:52:13;;;;;;;;;2.50;2.50;;;;;12.93;56.46;101738.44;5411926;26;44063;-67
2024/04/19 00:54:40;;;;;;;;;5.00;4.50;;;;;12.79;55.65;101696.78;5403132;26;44784;-67
2024/04/19 00:57:07;;;;;;;;;5.00;4.00;;;;;12.92;56.02;101715.25;5425039;26;44563;-68
2024/04/19 00:59:33;;;;;;;;;4.00;4.00;;;;;12.88;56.37;101698.38;5415561;26;43908;-67
2024/04/19 01:01:59;;;;;;;;;4.50;4.50;;;;;12.86;56.70;101697.50;5415008;26;43912;-67
2024/04/19 01:04:24;;;;;;;;;2.75;2.75;;;;;12.59;55.99;101659.81;5436525;26;45142;-67
2024/04/19 01:06:49;;;;;;;;;4.00;4.00;;;;;12.83;56.05;101686.91;5439679;25;43844;-67
2024/04/19 01:09:15;;;;;;;;;4.00;4.00;;;;;12.69;56.05;101670.31;5403053;26;44210;-67
2024/04/19 01:11:41;;;;;;;;;2.50;2.50;;;;;12.90;56.67;101701.88;5426147;26;44030;-67
2024/04/19 01:14:07;;;;;;;;;4.75;4.75;;;;;12.90;57.04;101691.16;5402917;26;44684;-67
2024/04/19 01:16:33;;;;;;;;;3.00;3.00;;;;;12.86;56.07;101692.16;5421550;26;44161;-67
2024/04/19 01:18:59;;;;;;;;;5.00;4.00;;;;;12.63;56.22;101654.38;5422964;26;43860;-67
2024/04/19 01:21:24;;;;;;;;;4.00;4.00;;;;;12.87;56.24;101680.53;5416373;26;46695;-67
2024/04/19 01:24:00;;;;;;;;;2.00;2.00;;;;;12.81;57.04;101682.50;5425826;26;44670;-67
2024/04/19 01:26:26;;;;;;;;;3.50;3.50;;;;;12.77;56.71;101666.50;5429784;26;44283;-67
2024/04/19 01:28:51;;;;;;;;;3.25;3.25;;;;;12.77;56.34;101655.78;5408041;26;43911;-67
2024/04/19 01:31:17;;;;;;;;;7.25;4.25;;;;;12.75;57.32;101649.59;5406598;26;43924;-67
2024/04/19 01:33:42;;;;;;;;;3.00;3.00;;;;;12.81;56.56;101661.06;5428364;26;46300;-67
2024/04/19 01:36:07;;;;;;;;;4.25;3.75;;;;;12.60;56.11;101625.91;5428119;26;45184;-68
2024/04/19 01:38:33;;;;;;;;;0.00;0.00;;;;;12.54;56.05;101616.22;5392561;26;43840;-67
2024/04/19 01:40:58;;;;;;;;;3.00;3.00;;;;;12.79;56.96;101650.38;5417594;26;47239;-67
2024/04/19 01:43:23;;;;;;;;;3.75;3.50;;;;;12.79;57.22;101648.56;5414213;26;51880;-67
2024/04/19 01:45:49;;;;;;;;;5.00;4.00;;;;;12.58;57.31;101615.22;5400704;26;44009;-67
2024/04/19 01:48:14;;;;;;;;;3.00;2.75;;;;;12.55;56.29;101611.75;5400744;26;48800;-67
2024/04/19 01:50:39;;;;;;;;;3.00;3.00;;;;;12.73;57.41;101640.72;5412974;26;44156;-67
2024/04/19 01:53:04;;;;;;;;;5.00;4.00;;;;;12.77;56.98;101641.50;5426187;26;49501;-67
2024/04/19 01:55:30;;;;;;;;;4.25;3.00;;;;;12.54;57.05;101612.66;5429682;26;43919;-67
2024/04/19 01:57:55;;;;;;;;;4.00;3.25;;;;;12.62;57.78;101625.84;5405893;26;43917;-67
2024/04/19 02:00:20;;;;;;;;;4.50;3.50;;;;;12.64;56.80;101619.53;5427277;26;44166;-67
2024/04/19 02:02:46;;;;;;;;;3.25;2.00;;;;;12.66;57.25;101630.19;5417780;26;43945;-67
2024/04/19 02:05:11;;;;;;;;;4.00;2.75;;;;;12.72;57.61;101638.94;5417609;26;43876;-67
2024/04/19 02:07:37;;;;;;;;;3.75;3.00;;;;;12.72;57.41;101635.41;5405728;26;44009;-67
2024/04/19 02:10:02;;;;;;;;;3.00;3.00;;;;;12.75;58.43;101636.19;5405759;26;43931;-67
2024/04/19 02:12:27;;;;;;;;;4.25;3.50;;;;;12.62;57.73;101613.34;5393584;26;43901;-67
2024/04/19 02:14:53;;;;;;;;;3.25;3.00;;;;;12.70;56.93;101619.38;5417480;26;43952;-68
2024/04/19 02:17:18;;;;;;;;;3.00;2.00;;;;;12.56;58.15;101584.03;5397792;26;43833;-67
2024/04/19 02:19:44;;;;;;;;;3.00;3.00;;;;;12.58;57.51;101585.75;5417412;26;44052;-67
2024/04/19 02:22:09;;;;;;;;;2.00;2.00;;;;;12.53;57.23;101571.63;5431418;26;45155;-67
2024/04/19 02:24:35;;;;;;;;;4.00;3.25;;;;;12.75;58.81;101611.22;5425486;25;43891;-67
2024/04/19 02:27:03;;;;;;;;;4.00;2.00;;;;;12.47;58.02;101566.41;5397765;26;43958;-67
2024/04/19 02:32:13;;;;;;;;;2.00;2.00;;;;;12.43;58.43;101554.06;5393174;26;43980;-67
2024/04/19 02:34:40;;;;;;;;;4.00;3.00;;;;;12.54;58.03;101561.78;5416259;26;43892;-67
2024/04/19 02:37:06;;;;;;;;;2.75;2.75;;;;;12.74;58.54;101594.22;5407403;26;43959;-67
2024/04/19 02:39:31;;;;;;;;;3.00;1.75;;;;;12.48;58.44;101546.78;5423325;26;44193;-68
2024/04/19 02:41:56;;;;;;;;;3.25;3.25;;;;;12.64;58.76;101575.78;5405176;26;58605;-67
2024/04/19 02:44:22;;;;;;;;;2.50;2.50;;;;;12.45;58.00;101529.91;5420936;26;44778;-67
2024/04/19 02:46:49;;;;;;;;;3.00;2.00;;;;;12.57;58.54;101564.38;5400700;26;43931;-67
2024/04/19 02:49:15;;;;;;;;;2.00;2.00;;;;;12.68;59.57;101581.03;5393424;26;44556;-67
2024/04/19 02:51:40;;;;;;;;;3.00;3.00;;;;;12.44;59.62;101537.03;5425843;26;43932;-67
2024/04/19 02:54:05;;;;;;;;;1.00;1.00;;;;;12.65;59.50;101569.53;5404153;26;54772;-67
2024/04/19 02:56:30;;;;;;;;;3.50;2.00;;;;;12.46;58.94;101537.00;5429200;26;43809;-67
2024/04/19 02:58:56;;;;;;;;;5.00;3.50;;;;;12.67;59.16;101563.19;5427153;26;52609;-67
2024/04/19 03:01:21;;;;;;;;;3.25;2.00;;;;;12.58;59.14;101548.25;5414249;26;43911;-67
2024/04/19 03:03:46;;;;;;;;;4.00;4.00;;;;;12.41;59.63;101524.63;5421437;26;43833;-67
2024/04/19 03:06:12;;;;;;;;;4.00;4.00;;;;;12.66;58.91;101553.38;5451424;25;45814;-67
2024/04/19 03:08:37;;;;;;;;;3.00;3.00;;;;;12.50;60.11;101528.84;5402186;26;44065;-67
2024/04/19 03:11:06;;;;;;;;;4.75;3.50;;;;;12.40;59.47;101511.28;5408206;26;43907;-67
2024/04/19 03:13:32;;;;;;;;;3.00;3.00;;;;;12.45;59.38;101514.72;5424919;26;44123;-67
2024/04/19 03:16:08;;;;;;;;;3.50;3.50;;;;;12.46;60.15;101510.22;5427058;26;43992;-67
2024/04/19 03:18:33;;;;;;;;;3.50;3.50;;;;;12.65;60.38;101545.44;5398575;26;43926;-67
2024/04/19 03:20:59;;;;;;;;;3.00;3.00;;;;;12.52;60.17;101527.00;5422976;26;44053;-67
2024/04/19 03:23:25;;;;;;;;;4.00;4.00;;;;;12.49;60.82;101524.41;5426089;26;44034;-67
2024/04/19 03:25:51;;;;;;;;;3.00;3.00;;;;;12.35;60.33;101506.06;5428795;26;43847;-67
2024/04/19 03:28:16;;;;;;;;;5.00;4.25;;;;;12.27;60.57;101488.44;5404729;26;43893;-67
2024/04/19 03:30:41;;;;;;;;;3.00;3.00;;;;;12.35;61.08;101502.50;5412251;26;46696;-67
2024/04/19 03:33:07;;;;;;;;;4.00;3.25;;;;;12.39;60.60;101497.00;5416679;26;43871;-67
2024/04/19 03:35:32;;;;;;;;;2.00;2.00;;;;;12.51;60.25;101519.00;5397230;26;44059;-67
2024/04/19 03:37:57;;;;;;;;;3.75;3.50;;;;;12.50;59.81;101514.59;5443212;26;43880;-67
2024/04/19 03:40:23;;;;;;;;;3.75;3.50;;;;;12.54;59.90;101527.81;5426291;26;47686;-68
2024/04/19 03:42:48;;;;;;;;;2.75;2.75;;;;;12.53;60.48;101518.06;5403537;26;43831;-67
2024/04/19 03:47:59;;;;;;;;;5.75;4.00;;;;;12.64;59.92;101522.22;5399524;26;43935;-67
2024/04/19 03:50:24;;;;;;;;;3.00;3.00;;;;;12.51;60.17;101498.50;5422268;26;45447;-67
2024/04/19 03:52:50;;;;;;;;;3.25;3.25;;;;;12.60;59.82;101516.94;5420853;26;43868;-67
2024/04/19 03:55:15;;;;;;;;;3.00;3.00;;;;;12.55;59.42;101504.63;5412547;26;44458;-67
2024/04/19 03:57:41;;;;;;;;;4.00;3.00;;;;;12.49;59.87;101489.59;5403029;26;58152;-67
2024/04/19 04:00:07;;;;;;;;;2.75;2.75;;;;;12.49;59.22;101481.56;5427429;26;47271;-68
2024/04/19 04:02:33;;;;;;;;;3.00;3.00;;;;;12.55;58.49;101486.75;5404034;26;44352;-67
2024/04/19 04:04:58;;;;;;;;;3.00;3.00;;;;;12.61;59.42;101501.75;5408379;26;43861;-67
2024/04/19 04:07:24;;;;;;;;;2.00;2.00;;;;;12.55;58.08;101480.53;5424349;26;43880;-67
2024/04/19 04:09:49;;;;;;;;;2.75;2.75;;;;;12.39;58.47;101461.31;5426322;26;45513;-67
2024/04/19 04:12:14;;;;;;;;;3.25;1.25;;;;;12.44;58.13;101461.19;5418205;26;43974;-67
2024/04/19 04:14:40;;;;;;;;;2.00;2.00;;;;;12.44;57.55;101478.13;5421852;26;44107;-67
2024/04/19 04:17:05;;;;;;;;;4.00;2.00;;;;;12.40;58.01;101460.41;5397827;26;44076;-67
2024/04/19 04:19:31;;;;;;;;;1.00;1.00;;;;;12.53;57.93;101482.34;5408949;26;45753;-67
2024/04/19 04:21:57;;;;;;;;;3.00;3.00;;;;;12.53;57.96;101479.66;5427771;26;43877;-67
2024/04/19 04:24:22;;;;;;;;;2.50;2.50;;;;;12.31;57.71;101440.16;5425867;26;43846;-67
2024/04/19 04:26:48;;;;;;;;;3.00;2.75;;;;;12.48;57.89;101477.16;5427822;26;43779;-67
2024/04/19 04:29:13;;;;;;;;;3.00;3.00;;;;;12.52;58.64;101486.84;5411541;26;44700;-67
2024/04/19 04:31:38;;;;;;;;;3.00;2.50;;;;;12.49;58.48;101478.00;5396247;26;43834;-67
2024/04/19 04:34:04;;;;;;;;;3.00;3.00;;;;;12.29;58.35;101446.44;5427867;26;44261;-67
2024/04/19 04:36:29;;;;;;;;;2.75;2.25;;;;;12.44;58.60;101478.13;5404056;26;44329;-67
2024/04/19 04:38:54;;;;;;;;;3.00;3.00;;;;;12.32;57.51;101457.06;5410402;26;44827;-67
2024/04/19 04:41:20;;;;;;;;;4.00;2.75;;;;;12.44;58.42;101480.81;5415125;26;44018;-67
2024/04/19 04:43:45;;;;;;;;;2.00;2.00;;;;;12.26;58.69;101452.75;5420010;26;43972;-67
2024/04/19 04:46:10;;;;;;;;;2.75;2.00;;;;;12.34;59.03;101455.22;5396048;26;47789;-67
2024/04/19 04:48:36;;;;;;;;;3.00;3.00;;;;;12.48;58.20;101473.56;5427609;26;44315;-67
2024/04/19 04:51:01;;;;;;;;;4.00;3.00;;;;;12.37;59.02;101455.16;5428632;26;53811;-67
2024/04/19 04:53:26;;;;;;;;;3.75;3.00;;;;;12.50;58.99;101472.63;5389982;26;43897;-67
2024/04/19 04:55:53;;;;;;;;;2.00;2.00;;;;;12.14;59.06;101424.53;5415287;26;44016;-67
2024/04/19 04:58:19;;;;;;;;;4.25;4.25;;;;;12.45;59.22;101474.53;5406370;26;45482;-67
2024/04/19 05:00:46;;;;;;;;;2.00;1.75;;;;;12.44;59.03;101463.88;5428065;26;43863;-67
2024/04/19 05:03:12;;;;;;;;;3.50;3.50;;;;;12.34;59.56;101449.88;5411130;26;44005;-67
2024/04/19 05:05:38;;;;;;;;;3.00;3.00;;;;;12.43;59.92;101468.38;5418499;26;43902;-67
2024/04/19 05:08:03;;;;;;;;;3.75;3.75;;;;;12.34;59.33;101452.53;5411761;26;44707;-67
2024/04/19 05:10:29;;;;;;;;;2.50;2.50;;;;;12.30;60.31;101442.88;5406780;26;43976;-67
2024/04/19 05:12:55;;;;;;;;;3.00;3.00;;;;;12.36;60.22;101467.66;5422613;26;46142;-67
2024/04/19 05:15:20;;;;;;;;;3.75;3.75;;;;;12.42;59.48;101469.28;5421666;26;44530;-67
2024/04/19 05:17:46;;;;;;;;;2.75;2.75;;;;;12.42;59.24;101479.97;5424718;26;44749;-67
2024/04/19 05:20:11;;;;;;;;;2.50;2.50;;;;;12.26;60.04;101449.22;5426352;26;44247;-67
2024/04/19 05:22:37;;;;;;;;;3.00;3.00;;;;;12.15;60.15;101422.75;5430138;26;44040;-67
2024/04/19 05:25:04;;;;;;;;;4.25;3.00;;;;;12.12;59.47;101428.19;5428210;26;43886;-67
2024/04/19 05:27:30;;;;;;;;;4.00;4.00;;;;;12.26;60.37;101451.88;5419973;26;44870;-67
2024/04/19 05:29:55;;;;;;;;;3.50;3.50;;;;;12.25;59.95;101451.00;5393391;26;44399;-67
2024/04/19 05:32:22;;;;;;;;;4.00;3.00;;;;;12.27;60.52;101449.16;5428168;26;43975;-67
2024/04/19 05:34:47;;;;;;;;;2.25;2.25;;;;;12.35;59.98;101459.66;5428153;26;43870;-67
2024/04/19 05:37:12;;;;;;;;;4.75;3.00;;;;;12.36;59.67;101461.41;5427771;26;45135;-67
2024/04/19 05:39:38;;;;;;;;;3.25;2.25;;;;;12.10;60.98;101416.66;5427676;26;43875;-67
2024/04/19 05:42:03;;;;;;;;;4.50;3.00;;;;;12.25;60.00;101450.16;5425195;26;43889;-67
2024/04/19 05:44:31;;;;;;;;;5.00;4.00;;;;;12.15;60.37;101434.34;5415227;26;44058;-67
2024/04/19 05:46:58;;;;;;;;;3.25;3.25;;;;;12.30;61.11;101461.59;5409352;26;44828;-68
2024/04/19 05:49:23;;;;;;;;;3.50;2.00;;;;;12.22;60.49;101449.28;5409546;26;44300;-67
2024/04/19 05:51:49;;;;;;;;;2.50;2.50;;;;;12.16;61.14;101430.75;5410544;26;44079;-67
2024/04/19 05:54:14;;;;;;;;;2.00;2.00;;;;;12.25;61.34;101447.47;5405947;26;43946;-67
2024/04/19 05:56:40;;;;;;;;;1.75;1.75;;;;;12.21;60.41;101439.53;5405097;26;44001;-67
2024/04/19 05:59:06;;;;;;;;;2.50;2.50;;;;;12.20;60.97;101435.06;5403258;26;43933;-68
2024/04/19 06:01:31;;;;;;;;;3.75;2.00;;;;;12.22;61.19;101441.25;5416987;26;43995;-67
2024/04/19 06:03:57;;;;;;;;;2.75;2.75;;;;;12.13;62.04;101433.50;5415532;26;44067;-67
2024/04/19 06:06:23;;;;;;;;;3.00;2.25;;;;;12.20;60.60;101450.28;5410108;26;44027;-67
2024/04/19 06:08:48;;;;;;;;;2.00;2.00;;;;;11.91;60.79;101411.81;5426173;26;43993;-73
2024/04/19 06:11:14;;;;;;;;;3.25;3.00;;;;;11.89;61.50;101394.88;5408940;26;45568;-67
2024/04/19 06:13:39;;;;;;;;;1.00;1.00;;;;;12.11;61.62;101438.03;5415295;26;44194;-70
2024/04/19 06:16:05;;;;;;;;;2.00;2.00;;;;;12.13;61.86;101454.91;5402921;26;44066;-70
2024/04/19 06:18:31;;;;;;;;;6.00;6.00;;;;;12.07;61.51;101440.81;5395638;26;44008;-70
2024/04/19 06:20:56;;;;;;;;;5.25;3.75;;;;;12.08;61.41;101447.91;5416842;26;44072;-70
2024/04/19 06:23:21;;;;;;;;;3.50;2.75;;;;;12.14;61.56;101459.31;5412886;26;44070;-70
2024/04/19 06:25:48;;;;;;;;;2.50;1.50;;;;;12.09;61.90;101442.53;5403143;26;44589;-69
2024/04/19 06:28:13;;;;;;;;;3.00;3.00;;;;;11.86;61.78;101409.22;5408572;26;44299;-69
2024/04/19 06:30:38;;;;;;;;;2.50;2.50;;;;;11.96;61.90;101428.63;5399194;26;45710;-69
2024/04/19 06:33:04;;;;;;;;;3.00;2.25;;;;;12.00;62.27;101429.41;5416501;26;44089;-70
2024/04/19 06:35:32;;;;;;;;;3.00;3.00;;;;;12.15;62.19;101454.88;5399131;26;44654;-70
2024/04/19 06:37:58;;;;;;;;;3.00;3.00;;;;;11.81;61.82;101395.09;5409573;26;44301;-70
2024/04/19 06:40:23;;;;;;;;;2.75;2.75;;;;;11.92;62.50;101405.53;5398158;26;43995;-66
2024/04/19 06:42:48;;;;;;;;;3.25;3.25;;;;;11.93;62.49;101404.63;5410052;26;43854;-71
2024/04/19 06:45:14;;;;;;;;;1.50;1.50;;;;;12.01;62.33;101407.97;5402581;26;45835;-69
2024/04/19 06:47:40;;;;;;;;;1.00;1.00;;;;;11.98;62.59;101409.84;5420006;26;44245;-67
2024/04/19 06:50:05;;;;;;;;;2.50;2.50;;;;;12.17;62.59;101435.16;5398458;26;43985;-67
2024/04/19 06:52:33;;;;;;;;;2.75;2.75;;;;;11.95;63.13;101399.22;5425215;26;43902;-69
2024/04/19 06:54:58;;;;;;;;;5.75;3.25;;;;;12.03;62.44;101413.28;5426332;26;44983;-69
2024/04/19 06:57:24;;;;;;;;;4.50;2.25;;;;;12.04;62.51;101401.63;5406747;26;45684;-69
2024/04/19 06:59:50;;;;;;;;;2.00;2.00;;;;;12.03;62.27;101406.13;5406256;26;43902;-69
2024/04/19 07:02:16;;;;;;;;;4.75;3.00;;;;;12.04;62.70;101407.88;5412232;26;44072;-69
2024/04/19 07:04:41;;;;;;;;;2.50;2.25;;;;;11.97;63.53;101408.09;5423293;26;46419;-69
2024/04/19 07:07:07;;;;;;;;;2.00;2.00;;;;;12.02;63.66;101416.84;5400227;26;44309;-69
2024/04/19 07:09:32;;;;;;;;;3.75;3.75;;;;;12.01;63.50;101409.75;5405473;26;43854;-69
2024/04/19 07:11:58;;;;;;;;;2.75;2.50;;;;;12.18;63.91;101425.34;5416916;26;43937;-69
2024/04/19 07:14:23;;;;;;;;;1.75;1.75;;;;;12.17;63.69;101423.59;5413387;26;44971;-69
2024/04/19 07:16:49;;;;;;;;;3.00;3.00;;;;;12.30;64.29;101432.16;5410143;26;43898;-69
2024/04/19 07:19:15;;;;;;;;;2.25;2.25;;;;;12.04;64.22;101410.56;5429569;26;44316;-69
2024/04/19 07:21:40;;;;;;;;;3.00;2.25;;;;;12.10;63.78;101397.94;5421541;26;44097;-68
2024/04/19 07:24:06;;;;;;;;;2.50;2.00;;;;;12.13;63.42;101398.72;5403361;26;44894;-67
2024/04/19 07:26:34;;;;;;;;;4.75;3.00;;;;;12.05;63.73;101384.66;5417450;26;44378;-68
2024/04/19 07:29:00;;;;;;;;;1.50;1.50;;;;;12.12;63.63;101401.44;5413793;26;43961;-67
2024/04/19 07:31:25;;;;;;;;;1.75;1.00;;;;;12.02;64.69;101382.06;5406661;26;43932;-68
2024/04/19 07:33:51;;;;;;;;;3.75;2.50;;;;;12.08;64.41;101394.38;5423681;26;43965;-68
2024/04/19 07:36:16;;;;;;;;;4.00;3.25;;;;;12.08;64.26;101389.03;5420646;26;44369;-69
2024/04/19 07:38:42;;;;;;;;;2.00;2.00;;;;;12.11;64.57;101394.31;5396244;26;43998;-67
2024/04/19 07:41:08;;;;;;;;;1.75;1.75;;;;;12.16;63.79;101393.28;5400690;26;44261;-67
2024/04/19 07:43:34;;;;;;;;;2.00;2.00;;;;;12.13;64.82;101388.00;5401950;26;44173;-67
2024/04/19 07:46:00;;;;;;;;;3.25;3.00;;;;;12.20;65.36;101408.31;5401301;26;44277;-67
2024/04/19 07:48:27;;;;;;;;;3.00;2.25;;;;;12.27;64.16;101413.50;5407136;26;44190;-67
2024/04/19 07:50:53;;;;;;;;;2.75;1.75;;;;;12.10;64.97;101388.09;5412794;26;44846;-67
2024/04/19 07:53:20;;;;;;;;;3.00;3.00;;;;;12.26;65.30;101401.03;5421797;26;44710;-67
2024/04/19 07:55:46;;;;;;;;;4.50;3.00;;;;;12.16;64.86;101382.56;5418081;26;44240;-67
2024/04/19 07:58:12;;;;;;;;;3.25;3.25;;;;;12.22;65.23;101386.84;5423725;26;43901;-67
2024/04/19 08:00:37;;;;;;;;;4.00;2.00;;;;;12.45;65.88;101421.00;5407789;26;44113;-67
2024/04/19 08:03:05;;;;;;;;;2.75;2.75;;;;;12.47;65.46;101411.09;5426481;26;43969;-67
2024/04/19 08:05:31;;;;;;;;;3.50;2.00;;;;;12.40;65.60;101394.34;5409544;26;44132;-68
2024/04/19 08:07:57;;;;;;;;;3.25;3.00;;;;;12.52;65.73;101410.97;5425347;26;44352;-64
2024/04/19 08:10:24;;;;;;;;;2.00;2.00;;;;;12.55;65.91;101414.44;5437925;26;44936;-66
2024/04/19 08:12:50;;;;;;;;;3.00;3.00;;;;;12.42;65.26;101378.25;5424092;26;46041;-66
2024/04/19 08:15:16;;;;;;;;;3.00;3.00;;;;;12.42;65.77;101371.06;5408264;26;44635;-66
2024/04/19 08:17:41;;;;;;;;;5.00;3.00;;;;;12.65;65.53;101403.47;5401307;26;44085;-67
2024/04/19 08:20:08;;;;;;;;;3.00;3.00;;;;;12.40;64.98;101361.34;5403390;26;43953;-66
2024/04/19 08:22:33;;;;;;;;;2.75;2.75;;;;;12.43;65.60;101363.94;5422703;26;45910;-67
2024/04/19 08:24:59;;;;;;;;;3.00;3.00;;;;;12.45;65.45;101364.75;5412771;26;47549;-67
2024/04/19 08:27:25;;;;;;;;;5.50;4.00;;;;;12.70;64.97;101390.81;5404080;26;44153;-66
2024/04/19 08:29:50;;;;;;;;;3.75;3.75;;;;;12.68;65.23;101389.94;5425680;26;43867;-67
2024/04/19 08:32:16;;;;;;;;;5.00;3.75;;;;;12.65;65.84;101385.59;5419808;26;44752;-67
2024/04/19 08:34:41;;;;;;;;;3.00;3.00;;;;;12.49;65.56;101352.16;5406706;26;48124;-67
2024/04/19 08:37:06;;;;;;;;;7.00;3.00;;;;;12.49;65.37;101347.66;5420036;26;44032;-67
2024/04/19 08:39:32;;;;;;;;;2.25;2.25;;;;;12.72;65.77;101386.28;5406685;26;44160;-67
2024/04/19 08:42:03;;;;;;;;;4.00;3.00;;;;;12.68;66.00;101380.13;5423116;26;45238;-67
2024/04/19 08:44:30;;;;;;;;;3.50;2.50;;;;;12.76;66.37;101382.56;5404529;26;44187;-67
2024/04/19 08:46:56;;;;;;;;;5.00;3.25;;;;;12.88;65.61;101397.38;5409212;26;43950;-67
2024/04/19 08:49:23;;;;;;;;;5.25;2.75;;;;;12.71;66.59;101372.00;5397197;26;43931;-67
2024/04/19 08:51:50;;;;;;;;;4.25;4.25;;;;;12.66;66.39;101355.19;5420209;26;44453;-67
2024/04/19 08:54:17;;;;;;;;;2.50;2.50;;;;;12.67;65.98;101351.59;5427013;26;44000;-66
2024/04/19 08:56:43;;;;;;;;;2.75;2.75;;;;;12.72;66.28;101360.34;5396391;26;44184;-66
2024/04/19 08:59:08;;;;;;;;;4.00;4.00;;;;;12.85;67.20;101371.56;5434584;26;44135;-66
2024/04/19 09:01:34;;;;;;;;;3.25;3.25;;;;;12.71;66.77;101345.22;5416211;26;44055;-66
2024/04/19 09:03:59;;;;;;;;;5.00;4.00;;;;;12.79;66.64;101355.69;5408617;26;44133;-66
2024/04/19 09:06:26;;;;;;;;;4.50;4.00;;;;;12.93;67.10;101380.25;5409488;26;43791;-66
2024/04/19 09:08:52;;;;;;;;;3.50;3.50;;;;;12.95;66.30;101378.38;5420122;26;44454;-66
2024/04/19 09:11:17;;;;;;;;;3.50;3.00;;;;;12.82;67.05;101350.22;5418987;26;45581;-66
2024/04/19 09:13:43;;;;;;;;;3.00;2.75;;;;;12.85;67.37;101344.78;5414030;26;44010;-66
2024/04/19 09:16:11;;;;;;;;;4.00;4.00;;;;;12.87;66.36;101352.75;5421986;26;43999;-66
2024/04/19 09:18:37;;;;;;;;;5.25;3.00;;;;;12.87;66.92;101342.03;5404871;26;43876;-66
2024/04/19 09:21:03;;;;;;;;;4.00;3.00;;;;;12.85;66.73;101341.22;5414671;26;46110;-66
2024/04/19 09:23:28;;;;;;;;;4.50;4.50;;;;;12.92;66.70;101340.97;5431898;26;43889;-66
2024/04/19 09:25:54;;;;;;;;;5.00;3.25;;;;;12.96;67.23;101341.72;5425198;26;43854;-66
2024/04/19 09:28:21;;;;;;;;;3.50;3.50;;;;;13.06;67.23;101358.38;5396118;26;44149;-66
2024/04/19 09:30:46;;;;;;;;;3.00;3.00;;;;;13.14;66.81;101375.97;5410182;26;46375;-65
2024/04/19 09:33:23;;;;;;;;;3.25;3.25;;;;;13.15;67.59;101379.53;5421104;26;43983;-66
2024/04/19 09:35:57;;;;;;;;;4.25;4.00;;;;;12.94;67.09;101348.94;5406137;26;44099;-65
2024/04/19 09:38:24;;;;;;;;;4.00;2.75;;;;;13.09;66.77;101367.19;5407038;26;43931;-66
2024/04/19 09:40:49;;;;;;;;;3.00;3.00;;;;;13.03;67.37;101350.44;5404796;26;46492;-66
2024/04/19 09:43:17;;;;;;;;;4.00;4.00;;;;;13.18;67.29;101378.53;5413717;26;44071;-67
2024/04/19 09:45:43;;;;;;;;;5.00;5.00;;;;;13.27;67.65;101387.16;5414307;26;44426;-67
2024/04/19 09:48:19;;;;;;;;;5.25;3.50;;;;;13.16;67.21;101368.78;5413208;26;44168;-68
2024/04/19 09:50:49;;;;;;;;;6.50;4.00;;;;;13.24;67.44;101373.00;5396897;26;44291;-67
2024/04/19 09:53:42;;;;;;;;;5.75;3.00;;;;;13.10;67.58;101352.88;5415961;26;44783;-68
2024/04/19 09:56:35;;;;;;;;;4.00;2.25;;;;;13.30;67.20;101383.53;5401463;26;44068;-68
2024/04/19 09:59:01;;;;;;;;;4.00;3.00;;;;;13.05;67.51;101330.72;5396192;26;43963;-68
2024/04/19 10:01:36;;;;;;;;;4.50;4.50;;;;;13.21;67.07;101357.88;5414381;26;46015;-67
2024/04/19 10:04:13;;;;;;;;;3.25;2.25;;;;;13.22;67.37;101353.41;5417130;26;43924;-69
2024/04/19 10:07:02;;;;;;;;;2.00;2.00;;;;;13.03;67.04;101320.97;5405439;26;43970;-69
2024/04/19 10:09:33;;;;;;;;;3.75;3.00;;;;;13.19;67.31;101346.31;5407086;26;43878;-69
2024/04/19 10:12:02;;;;;;;;;4.00;2.50;;;;;13.09;67.94;101323.44;5397951;26;44421;-68
2024/04/19 10:14:38;;;;;;;;;4.75;3.25;;;;;13.26;67.97;101338.97;5401505;26;45991;-68
2024/04/19 10:17:15;;;;;;;;;4.75;3.75;;;;;13.23;67.13;101320.28;5406842;26;43954;-69
2024/04/19 10:19:56;;;;;;;;;;;;;;;;;;;;;
2024/04/19 10:22:31;;;;;;;;;3.50;3.50;;;;;13.02;67.25;101285.25;5416007;26;74115;-69
2024/04/19 10:25:05;;;;;;;;;5.00;5.00;;;;;13.14;67.41;101306.28;5405929;26;44177;-69
2024/04/19 10:27:32;;;;;;;;;3.75;3.00;;;;;13.16;67.65;101290.13;5421822;26;44150;-67
2024/04/19 10:30:05;;;;;;;;;4.00;4.00;;;;;13.22;68.36;101295.28;5393731;26;44014;-67
2024/04/19 10:32:30;;;;;;;;;5.50;3.00;;;;;13.20;67.51;101296.25;5400306;26;44387;-67
2024/04/19 10:34:55;;;;;;;;;3.50;2.75;;;;;13.35;67.75;101317.25;5411566;26;45698;-67
2024/04/19 10:37:21;;;;;;;;;2.00;2.00;;;;;13.43;67.68;101327.69;5410476;26;43992;-67
2024/04/19 10:39:47;;;;;;;;;3.25;2.50;;;;;13.20;68.01;101281.06;5391404;26;44102;-67
2024/04/19 10:42:12;;;;;;;;;3.00;3.00;;;;;13.27;68.13;101279.91;5395122;26;44333;-67
2024/04/19 10:44:41;;;;;;;;;3.00;3.00;;;;;13.29;67.68;101275.38;5391368;26;43996;-67
2024/04/19 10:47:06;;;;;;;;;5.00;4.00;;;;;13.37;68.00;101287.69;5420627;26;43977;-67
2024/04/19 10:49:32;;;;;;;;;5.00;2.50;;;;;13.43;67.17;101298.19;5409069;26;44306;-67
2024/04/19 10:51:59;;;;;;;;;4.00;3.00;;;;;13.39;67.73;101283.16;5407264;26;44060;-67
2024/04/19 10:54:25;;;;;;;;;4.00;3.75;;;;;13.39;68.01;101288.50;5408631;26;43992;-67
2024/04/19 10:56:50;;;;;;;;;4.00;3.00;;;;;13.34;67.80;101288.66;5409428;26;43923;-67
2024/04/19 10:59:16;;;;;;;;;4.00;4.00;;;;;13.56;68.17;101309.34;5421400;26;44291;-67
2024/04/19 11:01:42;;;;;;;;;5.00;3.25;;;;;13.26;67.78;101259.41;5424321;26;45007;-67
2024/04/19 11:04:09;;;;;;;;;3.00;3.00;;;;;13.43;67.67;101283.00;5415911;26;43865;-67
2024/04/19 11:06:34;;;;;;;;;6.00;3.75;;;;;13.46;68.44;101284.66;5410786;26;44246;-67
2024/04/19 11:09:00;;;;;;;;;3.50;3.00;;;;;13.44;68.08;101284.72;5414500;26;44821;-67
2024/04/19 11:11:26;;;;;;;;;2.25;2.25;;;;;13.44;68.60;101270.44;5407872;26;44824;-67
2024/04/19 11:13:51;;;;;;;;;4.75;2.75;;;;;13.45;68.12;101258.81;5425288;26;44176;-67
2024/04/19 11:16:16;;;;;;;;;3.75;3.75;;;;;13.36;67.88;101243.91;5421069;26;44119;-67
2024/04/19 11:18:43;;;;;;;;;4.75;3.00;;;;;13.44;67.58;101236.44;5401898;26;44100;-67
2024/04/19 11:21:09;;;;;;;;;6.50;4.00;;;;;13.56;67.95;101251.22;5397991;26;44242;-67
2024/04/19 11:23:35;;;;;;;;;3.00;3.00;;;;;13.46;68.03;101233.72;5402205;26;43905;-67
2024/04/19 11:26:00;;;;;;;;;4.00;3.00;;;;;13.67;68.73;101266.94;5403172;26;44046;-67
2024/04/19 11:28:25;;;;;;;;;3.25;3.25;;;;;13.54;68.08;101258.44;5401337;26;44242;-67